Time;durP1;ratioP1;P1;durP2;ratioP2;P2;SDS_P1;SDS_P2;PMS_P1;PMS_P2;Temp;Humidity;BMP_temperature;BMP_pressure;BME280_temperature;BME280_humidity;BME280_pressure;Samples;Min_cycle;Max_cycle;Signal;HPM_P1;HPM_P2
2022/11/27 00:01:25;;;;;;;4.27;2.90;;;9.20;99.90;;;;;;5033894;28;20887;-74
2022/11/27 00:03:55;;;;;;;8.07;3.47;;;9.20;99.90;;;;;;5011926;28;20431;-74
2022/11/27 00:06:22;;;;;;;5.60;2.90;;;9.20;99.90;;;;;;4996951;28;20423;-74
2022/11/27 00:08:51;;;;;;;8.80;3.10;;;9.10;99.90;;;;;;5001539;28;20459;-74
2022/11/27 00:11:21;;;;;;;9.93;3.33;;;9.10;99.90;;;;;;5015529;28;20505;-74
2022/11/27 00:13:50;;;;;;;4.47;2.90;;;9.10;99.90;;;;;;4980794;28;20432;-74
2022/11/27 00:16:16;;;;;;;6.00;3.10;;;9.20;99.90;;;;;;5029809;28;20442;-74
2022/11/27 00:18:43;;;;;;;6.87;3.33;;;9.10;99.90;;;;;;5015959;28;20451;-74
2022/11/27 00:21:21;;;;;;;5.20;2.90;;;9.20;99.90;;;;;;5034146;28;20438;-74
2022/11/27 00:23:53;;;;;;;7.90;2.80;;;9.10;99.90;;;;;;5015195;28;20950;-74
2022/11/27 00:26:20;;;;;;;8.77;2.80;;;9.20;99.90;;;;;;5015439;28;20858;-74
2022/11/27 00:28:51;;;;;;;5.30;2.83;;;9.10;99.90;;;;;;4994019;28;21023;-74
2022/11/27 00:31:20;;;;;;;6.40;3.17;;;9.10;99.90;;;;;;4980594;28;20865;-74
2022/11/27 00:33:49;;;;;;;4.27;2.53;;;9.10;99.90;;;;;;4985892;28;20896;-74
2022/11/27 00:36:22;;;;;;;6.50;3.00;;;9.10;99.90;;;;;;5000133;28;20421;-74
2022/11/27 00:38:48;;;;;;;5.03;2.77;;;9.10;99.90;;;;;;4997701;28;20481;-74
2022/11/27 00:41:18;;;;;;;5.53;2.87;;;9.10;99.90;;;;;;5024389;28;20451;-74
2022/11/27 00:43:44;;;;;;;5.77;2.50;;;9.10;99.90;;;;;;4999181;28;20431;-74
2022/11/27 00:46:19;;;;;;;6.87;2.90;;;9.10;99.90;;;;;;5001205;28;20481;-73
2022/11/27 00:48:48;;;;;;;4.23;2.50;;;9.10;99.90;;;;;;5005995;28;20469;-74
2022/11/27 00:51:23;;;;;;;3.60;2.20;;;9.10;99.90;;;;;;5015135;28;20482;-74
2022/11/27 00:53:49;;;;;;;6.23;3.37;;;9.10;99.90;;;;;;5032914;28;20816;-74
2022/11/27 00:56:18;;;;;;;6.13;3.10;;;9.10;99.90;;;;;;5033643;28;20398;-74
2022/11/27 00:58:44;;;;;;;5.40;2.57;;;9.10;99.90;;;;;;4990247;28;20431;-74
2022/11/27 01:01:17;;;;;;;6.67;2.90;;;9.10;99.90;;;;;;5015247;28;20550;-73
2022/11/27 01:03:46;;;;;;;4.00;2.30;;;9.10;99.90;;;;;;5014149;28;21055;-74
2022/11/27 01:06:13;;;;;;;4.83;2.30;;;9.10;99.90;;;;;;4996912;28;20457;-74
2022/11/27 01:08:42;;;;;;;5.63;3.00;;;9.10;99.90;;;;;;4987025;28;20504;-74
2022/11/27 01:11:20;;;;;;;4.47;2.37;;;9.10;99.90;;;;;;5015047;28;20532;-74
2022/11/27 01:13:47;;;;;;;7.87;3.47;;;9.10;99.90;;;;;;4979991;28;20961;-74
2022/11/27 01:16:17;;;;;;;6.80;3.17;;;9.10;99.90;;;;;;4998373;28;20796;-73
2022/11/27 01:18:47;;;;;;;7.77;3.07;;;9.10;99.90;;;;;;5006056;28;20419;-74
2022/11/27 01:21:15;;;;;;;6.40;2.80;;;9.10;99.90;;;;;;4991482;28;20444;-73
2022/11/27 01:23:41;;;;;;;6.87;2.97;;;9.00;99.90;;;;;;4979813;28;20424;-73
2022/11/27 01:26:10;;;;;;;4.70;2.30;;;9.00;99.90;;;;;;5001996;28;20422;-73
2022/11/27 01:28:42;;;;;;;4.80;2.50;;;9.00;99.90;;;;;;5022939;28;20486;-74
2022/11/27 01:31:14;;;;;;;8.47;2.57;;;9.00;99.90;;;;;;5026282;28;20455;-73
2022/11/27 01:33:42;;;;;;;8.70;3.30;;;9.00;99.90;;;;;;5013049;28;20403;-73
2022/11/27 01:36:14;;;;;;;4.10;2.17;;;9.00;99.90;;;;;;5017964;28;20477;-74
2022/11/27 01:38:43;;;;;;;5.20;2.60;;;9.00;99.90;;;;;;4980783;28;20451;-74
2022/11/27 01:41:21;;;;;;;6.23;2.73;;;9.00;99.90;;;;;;4997902;28;20463;-74
2022/11/27 01:43:59;;;;;;;10.00;3.13;;;9.00;99.90;;;;;;4998147;28;20442;-74
2022/11/27 01:46:34;;;;;;;3.00;2.20;;;9.00;99.90;;;;;;5032359;28;20482;-74
2022/11/27 01:49:24;;;;;;;6.53;2.90;;;9.00;99.90;;;;;;4982502;28;20459;-74
2022/11/27 01:52:06;;;;;;;3.70;2.23;;;9.00;99.90;;;;;;4998408;28;20415;-73
2022/11/27 01:54:42;;;;;;;6.23;2.50;;;9.00;99.90;;;;;;5000737;28;20938;-74
2022/11/27 01:57:35;;;;;;;4.37;2.30;;;9.00;99.90;;;;;;4999972;28;20430;-74
2022/11/27 02:00:05;;;;;;;4.37;2.33;;;9.00;99.90;;;;;;4995632;28;20986;-73
2022/11/27 02:02:40;;;;;;;5.53;2.40;;;9.00;99.90;;;;;;5017978;28;20434;-74
2022/11/27 02:05:06;;;;;;;8.13;2.37;;;9.00;99.90;;;;;;4995015;28;20502;-74
2022/11/27 02:07:32;;;;;;;7.90;2.77;;;8.90;99.90;;;;;;4986082;28;20505;-74
2022/11/27 02:10:06;;;;;;;4.60;2.80;;;8.90;99.90;;;;;;5013470;28;20486;-74
2022/11/27 02:12:41;;;;;;;7.27;2.53;;;8.90;99.90;;;;;;4985422;28;20485;-74
2022/11/27 02:15:24;;;;;;;2.50;2.07;;;8.90;99.90;;;;;;4994589;28;20410;-74
2022/11/27 02:18:16;;;;;;;6.73;2.30;;;8.90;99.90;;;;;;4988383;28;20434;-74
2022/11/27 02:20:54;;;;;;;3.80;1.90;;;8.90;99.90;;;;;;4984166;28;20449;-74
2022/11/27 02:23:57;;;;;;;5.10;2.70;;;8.90;99.90;;;;;;5012927;28;20518;-73
2022/11/27 02:26:28;;;;;;;7.73;2.60;;;8.90;99.90;;;;;;4997676;28;20529;-73
2022/11/27 02:28:59;;;;;;;6.70;2.40;;;8.90;99.90;;;;;;4994093;28;20460;-74
2022/11/27 02:31:28;;;;;;;8.00;3.17;;;8.90;99.90;;;;;;4997261;28;20553;-74
2022/11/27 02:34:04;;;;;;;8.87;2.63;;;8.90;99.90;;;;;;5005948;28;20945;-74
2022/11/27 02:36:36;;;;;;;6.67;2.03;;;8.90;99.90;;;;;;4979034;28;20838;-74
2022/11/27 02:39:09;;;;;;;7.03;2.00;;;8.90;99.90;;;;;;4998289;28;20991;-74
2022/11/27 02:41:49;;;;;;;4.00;3.10;;;8.90;99.90;;;;;;4996492;28;20454;-74
2022/11/27 02:44:17;;;;;;;6.93;2.47;;;8.90;99.90;;;;;;5025560;28;20442;-74
2022/11/27 02:46:45;;;;;;;7.63;2.67;;;8.90;99.90;;;;;;5011269;28;20423;-74
2022/11/27 02:49:17;;;;;;;14.13;2.63;;;8.90;99.90;;;;;;5011820;28;20439;-74
2022/11/27 02:51:54;;;;;;;4.60;2.47;;;8.90;99.90;;;;;;4992107;28;20465;-74
2022/11/27 02:54:28;;;;;;;4.33;3.00;;;8.90;99.90;;;;;;5013027;28;20441;-74
2022/11/27 02:56:58;;;;;;;13.33;3.07;;;8.90;99.90;;;;;;4986571;28;20521;-74
2022/11/27 02:59:30;;;;;;;5.30;3.03;;;8.90;99.90;;;;;;5013787;28;20463;-74
2022/11/27 03:02:01;;;;;;;6.60;3.13;;;8.90;99.90;;;;;;4999636;28;20447;-73
2022/11/27 03:04:45;;;;;;;8.00;3.17;;;8.90;99.90;;;;;;4978079;28;20416;-74
2022/11/27 03:07:29;;;;;;;7.80;3.83;;;8.90;99.90;;;;;;4988317;28;20415;-74
2022/11/27 03:10:04;;;;;;;5.10;2.93;;;8.80;99.90;;;;;;5025748;28;20476;-74
2022/11/27 03:12:34;;;;;;;6.33;3.20;;;8.80;99.90;;;;;;5027518;28;20450;-73
2022/11/27 03:15:00;;;;;;;5.20;2.73;;;8.80;99.90;;;;;;5013599;28;20491;-74
2022/11/27 03:17:33;;;;;;;7.50;2.73;;;8.80;99.90;;;;;;5021766;28;20423;-74
2022/11/27 03:20:25;;;;;;;6.13;3.43;;;8.80;99.90;;;;;;5004290;28;20645;-73
2022/11/27 03:22:55;;;;;;;5.20;3.60;;;8.80;99.90;;;;;;4993995;28;20412;-73
2022/11/27 03:25:22;;;;;;;6.43;3.47;;;8.80;99.90;;;;;;5006438;28;20978;-73
2022/11/27 03:27:57;;;;;;;7.30;3.40;;;8.80;99.90;;;;;;5016960;28;20770;-74
2022/11/27 03:30:23;;;;;;;6.40;3.43;;;8.80;99.90;;;;;;5017129;28;20543;-74
2022/11/27 03:32:52;;;;;;;5.60;4.10;;;8.80;99.90;;;;;;5000613;28;20446;-74
2022/11/27 03:35:24;;;;;;;5.10;3.20;;;8.80;99.90;;;;;;5017374;28;20407;-74
2022/11/27 03:37:50;;;;;;;6.57;3.70;;;8.80;99.90;;;;;;5021147;28;20904;-73
2022/11/27 03:40:18;;;;;;;7.00;4.00;;;8.80;99.90;;;;;;4981328;28;20443;-74
2022/11/27 03:42:46;;;;;;;9.40;4.50;;;8.80;99.90;;;;;;4993886;28;20480;-73
2022/11/27 03:45:45;;;;;;;7.63;3.80;;;8.80;99.90;;;;;;5017155;28;20451;-73
2022/11/27 03:48:11;;;;;;;8.50;4.60;;;8.80;99.90;;;;;;5012793;28;20425;-74
2022/11/27 03:50:40;;;;;;;6.97;4.40;;;8.80;99.90;;;;;;5030506;28;20472;-74
2022/11/27 03:53:24;;;;;;;7.87;4.00;;;8.70;99.90;;;;;;5000794;28;20420;-74
2022/11/27 03:56:02;;;;;;;7.90;4.33;;;8.70;99.90;;;;;;5034749;28;20411;-74
2022/11/27 03:58:58;;;;;;;10.27;4.90;;;8.80;99.90;;;;;;5012350;28;20430;-74
2022/11/27 04:01:26;;;;;;;8.23;4.50;;;8.70;99.90;;;;;;4981612;28;20869;-74
2022/11/27 04:03:54;;;;;;;10.87;5.07;;;8.70;99.90;;;;;;5000860;28;20820;-74
2022/11/27 04:06:22;;;;;;;12.07;4.97;;;8.70;99.90;;;;;;5015877;28;20453;-73
2022/11/27 04:08:48;;;;;;;6.40;4.03;;;8.70;99.90;;;;;;4964865;28;20453;-74
2022/11/27 04:11:17;;;;;;;10.23;5.10;;;8.70;99.90;;;;;;4991638;28;20463;-74
2022/11/27 04:13:45;;;;;;;12.83;6.10;;;8.70;99.90;;;;;;4997483;28;20484;-74
2022/11/27 04:16:11;;;;;;;8.90;5.20;;;8.70;99.90;;;;;;4997376;28;20803;-73
2022/11/27 04:18:37;;;;;;;11.33;5.00;;;8.70;99.90;;;;;;5012198;28;20448;-74
2022/11/27 04:21:05;;;;;;;7.57;4.60;;;8.70;99.90;;;;;;5014544;28;20436;-73
2022/11/27 04:23:31;;;;;;;9.53;5.07;;;8.70;99.90;;;;;;5014584;28;20426;-74
2022/11/27 04:25:57;;;;;;;10.13;5.40;;;8.70;99.90;;;;;;5000621;28;20426;-74
2022/11/27 04:28:25;;;;;;;12.03;5.33;;;8.70;99.90;;;;;;4983033;28;20428;-74
2022/11/27 04:30:55;;;;;;;8.03;4.80;;;8.70;99.90;;;;;;4988454;28;20993;-74
2022/11/27 04:33:23;;;;;;;10.07;4.77;;;8.70;99.90;;;;;;5033736;28;20804;-73
2022/11/27 04:35:52;;;;;;;9.87;5.03;;;8.70;99.90;;;;;;5027955;28;20486;-74
2022/11/27 04:38:19;;;;;;;8.50;5.63;;;8.70;99.90;;;;;;5000176;28;20431;-74
2022/11/27 04:40:45;;;;;;;7.00;4.60;;;8.70;99.90;;;;;;5014678;28;20454;-73
2022/11/27 04:43:11;;;;;;;9.07;5.27;;;8.70;99.90;;;;;;4990173;28;20464;-73
2022/11/27 04:45:38;;;;;;;7.70;5.10;;;8.70;99.90;;;;;;4984174;28;20518;-73
2022/11/27 04:48:04;;;;;;;8.23;5.50;;;8.70;99.90;;;;;;5000272;28;20810;-74
2022/11/27 04:50:30;;;;;;;7.77;4.80;;;8.70;99.90;;;;;;5012409;28;20470;-74
2022/11/27 04:52:56;;;;;;;8.20;5.10;;;8.70;99.90;;;;;;5013997;28;20409;-73
2022/11/27 04:55:22;;;;;;;7.87;5.33;;;8.70;99.90;;;;;;4980873;28;20784;-74
2022/11/27 04:58:06;;;;;;;14.23;6.20;;;8.70;99.90;;;;;;5014313;28;20462;-73
2022/11/27 05:00:35;;;;;;;8.83;5.50;;;8.70;99.90;;;;;;5002931;28;20475;-73
2022/11/27 05:03:01;;;;;;;9.27;5.63;;;8.70;99.90;;;;;;4993613;28;20466;-74
2022/11/27 05:05:32;;;;;;;9.53;6.23;;;8.70;99.90;;;;;;5006909;28;20436;-74
2022/11/27 05:07:58;;;;;;;9.97;5.40;;;8.70;99.90;;;;;;5008094;28;21023;-74
2022/11/27 05:10:24;;;;;;;15.20;6.30;;;8.70;99.90;;;;;;4997578;28;20471;-74
2022/11/27 05:12:50;;;;;;;11.07;5.20;;;8.70;99.90;;;;;;4998858;28;20549;-73
2022/11/27 05:15:15;;;;;;;10.37;5.53;;;8.70;99.90;;;;;;5015759;28;20432;-74
2022/11/27 05:17:46;;;;;;;9.00;5.30;;;8.70;99.90;;;;;;4994407;28;20424;-74
2022/11/27 05:20:12;;;;;;;11.97;6.33;;;8.70;99.90;;;;;;5010959;28;20450;-73
2022/11/27 05:22:41;;;;;;;10.13;5.20;;;8.70;99.90;;;;;;5011541;28;20427;-73
2022/11/27 05:25:09;;;;;;;7.53;5.37;;;8.60;99.90;;;;;;4995760;28;20408;-74
2022/11/27 05:27:39;;;;;;;10.57;7.10;;;8.60;99.90;;;;;;5000012;28;20451;-74
2022/11/27 05:30:06;;;;;;;12.30;6.27;;;8.60;99.90;;;;;;5032473;28;20561;-73
2022/11/27 05:32:35;;;;;;;13.87;5.40;;;8.60;99.90;;;;;;4998430;28;20434;-73
2022/11/27 05:35:01;;;;;;;8.50;4.80;;;8.60;99.90;;;;;;4999276;28;20411;-73
2022/11/27 05:37:29;;;;;;;7.33;5.00;;;8.70;99.90;;;;;;5001265;28;20807;-74
2022/11/27 05:39:55;;;;;;;10.10;5.97;;;8.60;99.90;;;;;;5032603;28;20491;-73
2022/11/27 05:42:23;;;;;;;12.13;6.63;;;8.60;99.90;;;;;;5003418;28;20847;-74
2022/11/27 05:44:49;;;;;;;9.77;5.33;;;8.60;99.90;;;;;;5014428;28;20431;-74
2022/11/27 05:47:15;;;;;;;12.47;6.13;;;8.60;99.90;;;;;;4985379;28;20431;-74
2022/11/27 05:49:41;;;;;;;6.63;4.87;;;8.60;99.90;;;;;;5014323;28;20826;-74
2022/11/27 05:52:07;;;;;;;10.40;4.93;;;8.60;99.90;;;;;;5014023;28;20677;-74
2022/11/27 05:54:37;;;;;;;8.03;5.97;;;8.60;99.90;;;;;;5014290;28;20840;-74
2022/11/27 05:57:03;;;;;;;10.87;5.70;;;8.60;99.90;;;;;;5015251;28;20951;-74
2022/11/27 05:59:31;;;;;;;11.37;5.90;;;8.60;99.90;;;;;;5013074;28;20451;-74
2022/11/27 06:01:57;;;;;;;11.70;5.27;;;8.60;99.90;;;;;;4979102;28;20486;-74
2022/11/27 06:04:23;;;;;;;7.90;5.33;;;8.60;99.90;;;;;;5012140;28;20450;-73
2022/11/27 06:06:52;;;;;;;9.37;5.47;;;8.60;99.90;;;;;;5032532;28;20406;-73
2022/11/27 06:09:18;;;;;;;8.30;5.10;;;8.60;99.90;;;;;;5013834;28;20466;-73
2022/11/27 06:11:44;;;;;;;12.00;5.70;;;8.60;99.90;;;;;;4997760;28;20549;-74
2022/11/27 06:14:12;;;;;;;8.13;5.37;;;8.60;99.90;;;;;;5007518;28;20497;-74
2022/11/27 06:16:38;;;;;;;9.50;5.50;;;8.60;99.90;;;;;;4998560;28;20480;-73
2022/11/27 06:19:04;;;;;;;7.00;4.37;;;8.60;99.90;;;;;;4994818;28;20538;-73
2022/11/27 06:21:30;;;;;;;6.50;5.30;;;8.60;99.90;;;;;;5012481;28;20983;-73
2022/11/27 06:23:56;;;;;;;10.83;5.20;;;8.60;99.90;;;;;;4991931;28;20435;-74
2022/11/27 06:26:27;;;;;;;10.80;5.57;;;8.60;99.90;;;;;;4998048;28;20426;-73
2022/11/27 06:28:56;;;;;;;8.03;4.80;;;8.60;99.90;;;;;;4996311;28;20834;-74
2022/11/27 06:31:25;;;;;;;10.03;5.43;;;8.60;99.90;;;;;;5014394;28;20546;-73
2022/11/27 06:33:53;;;;;;;8.90;4.97;;;8.60;99.90;;;;;;5001669;28;20930;-74
2022/11/27 06:36:21;;;;;;;7.87;4.77;;;8.60;99.90;;;;;;5012226;28;20466;-74
2022/11/27 06:38:46;;;;;;;8.23;5.60;;;8.60;99.90;;;;;;5006736;28;20420;-74
2022/11/27 06:41:18;;;;;;;8.00;5.20;;;8.60;99.90;;;;;;5013749;28;20442;-74
2022/11/27 06:43:44;;;;;;;6.87;4.80;;;8.60;99.90;;;;;;5013956;28;20513;-74
2022/11/27 06:46:14;;;;;;;8.80;5.00;;;8.60;99.90;;;;;;5014312;28;20958;-74
2022/11/27 06:48:40;;;;;;;9.20;4.40;;;8.60;99.90;;;;;;5010375;28;20450;-74
2022/11/27 06:51:12;;;;;;;11.17;5.13;;;8.60;99.90;;;;;;5013935;28;20806;-73
2022/11/27 06:53:42;;;;;;;8.17;4.90;;;8.60;99.90;;;;;;4996452;28;20826;-74
2022/11/27 06:56:22;;;;;;;8.23;5.03;;;8.60;99.90;;;;;;4997836;28;20410;-74
2022/11/27 06:58:56;;;;;;;7.23;4.20;;;8.50;99.90;;;;;;5018420;28;20448;-72
2022/11/27 07:01:23;;;;;;;6.80;4.17;;;8.60;99.90;;;;;;5010739;28;20516;-73
2022/11/27 07:03:52;;;;;;;8.03;4.67;;;8.60;99.90;;;;;;5018077;28;20398;-74
2022/11/27 07:06:23;;;;;;;6.97;4.70;;;8.50;99.90;;;;;;5023087;28;20475;-74
2022/11/27 07:08:49;;;;;;;13.23;5.00;;;8.60;99.90;;;;;;5032785;28;20447;-74
2022/11/27 07:11:21;;;;;;;7.57;4.40;;;8.50;99.90;;;;;;4990283;28;20454;-73
2022/11/27 07:13:48;;;;;;;8.00;4.70;;;8.60;99.90;;;;;;4982965;28;20525;-73
2022/11/27 07:16:15;;;;;;;9.03;5.10;;;8.60;99.90;;;;;;5015825;28;20448;-73
2022/11/27 07:18:44;;;;;;;6.90;5.13;;;8.50;99.90;;;;;;5013775;28;20517;-74
2022/11/27 07:21:10;;;;;;;6.60;4.13;;;8.60;99.90;;;;;;4997919;28;20493;-74
2022/11/27 07:23:39;;;;;;;6.50;5.23;;;8.60;99.90;;;;;;4995195;28;21059;-74
2022/11/27 07:26:07;;;;;;;10.67;4.70;;;8.50;99.90;;;;;;5017354;28;20431;-74
2022/11/27 07:28:34;;;;;;;6.93;4.53;;;8.50;99.90;;;;;;4990626;28;20924;-73
2022/11/27 07:31:05;;;;;;;6.33;4.40;;;8.50;99.90;;;;;;4982400;28;20442;-74
2022/11/27 07:33:31;;;;;;;12.53;5.27;;;8.50;99.90;;;;;;4998386;28;20409;-75
2022/11/27 07:36:19;;;;;;;5.83;4.70;;;8.50;99.90;;;;;;5015792;28;20470;-74
2022/11/27 07:38:48;;;;;;;6.13;4.30;;;8.50;99.90;;;;;;5014028;28;20521;-73
2022/11/27 07:41:17;;;;;;;7.70;4.50;;;8.50;99.90;;;;;;5033067;28;20457;-74
2022/11/27 07:43:46;;;;;;;8.47;4.27;;;8.50;99.90;;;;;;4999261;28;20475;-74
2022/11/27 07:46:18;;;;;;;4.60;3.63;;;8.50;99.90;;;;;;4999204;28;20442;-73
2022/11/27 07:48:44;;;;;;;6.17;4.07;;;8.50;99.90;;;;;;5054834;23;20550;-73
2022/11/27 07:51:12;;;;;;;6.60;4.13;;;8.60;99.90;;;;;;4966038;28;20544;-73
2022/11/27 07:53:39;;;;;;;13.53;5.30;;;8.50;99.90;;;;;;5006041;28;20451;-72
2022/11/27 07:56:15;;;;;;;9.20;4.27;;;8.60;99.90;;;;;;4974042;28;20920;-73
2022/11/27 07:58:43;;;;;;;6.97;4.43;;;8.60;99.90;;;;;;4986555;28;20424;-73
2022/11/27 08:01:13;;;;;;;5.53;3.50;;;8.50;99.90;;;;;;4976140;28;20455;-73
2022/11/27 08:03:44;;;;;;;6.23;4.60;;;8.50;99.90;;;;;;4943673;28;20432;-73
2022/11/27 08:06:21;;;;;;;8.03;4.43;;;8.50;99.90;;;;;;4975113;28;20914;-73
2022/11/27 08:08:49;;;;;;;5.63;3.97;;;8.50;99.90;;;;;;4989688;28;20510;-73
2022/11/27 08:11:24;;;;;;;4.13;3.63;;;8.50;99.90;;;;;;4990151;28;20467;-73
2022/11/27 08:13:57;;;;;;;7.63;4.50;;;8.50;99.90;;;;;;4992899;28;20876;-73
2022/11/27 08:16:23;;;;;;;6.57;4.47;;;8.50;99.90;;;;;;4998209;28;20440;-73
2022/11/27 08:18:49;;;;;;;6.07;4.07;;;8.50;99.90;;;;;;4975548;28;20436;-73
2022/11/27 08:21:15;;;;;;;6.70;3.73;;;8.50;99.90;;;;;;4963030;28;20538;-73
2022/11/27 08:23:47;;;;;;;7.33;4.00;;;8.50;99.90;;;;;;4993720;28;20442;-73
2022/11/27 08:26:15;;;;;;;9.00;3.90;;;8.50;99.90;;;;;;4990347;28;21017;-73
2022/11/27 08:28:42;;;;;;;4.77;3.80;;;8.60;99.90;;;;;;4988335;28;21006;-73
2022/11/27 08:31:10;;;;;;;5.87;3.63;;;8.60;99.90;;;;;;4991184;28;20487;-73
2022/11/27 08:33:36;;;;;;;7.03;3.77;;;8.60;99.90;;;;;;4989033;28;20966;-73
2022/11/27 08:36:04;;;;;;;4.07;3.33;;;8.60;99.90;;;;;;5010558;28;20431;-73
2022/11/27 08:38:33;;;;;;;5.93;4.17;;;8.60;99.90;;;;;;4994060;28;20488;-73
2022/11/27 08:41:01;;;;;;;5.17;3.37;;;8.60;99.90;;;;;;4968013;28;20451;-73
2022/11/27 08:43:28;;;;;;;4.57;3.67;;;8.60;99.90;;;;;;4958267;28;20842;-73
2022/11/27 08:45:54;;;;;;;5.67;3.33;;;8.60;99.90;;;;;;5000452;28;20420;-73
2022/11/27 08:48:26;;;;;;;7.90;4.33;;;8.60;99.90;;;;;;4977513;28;20460;-73
2022/11/27 08:50:52;;;;;;;4.50;3.57;;;8.60;99.90;;;;;;4981798;28;20448;-73
2022/11/27 08:53:21;;;;;;;3.90;3.40;;;8.60;99.90;;;;;;4993726;28;20423;-73
2022/11/27 08:55:49;;;;;;;4.97;3.27;;;8.70;99.90;;;;;;4969444;28;20479;-73
2022/11/27 08:58:15;;;;;;;9.33;4.23;;;8.70;99.90;;;;;;4988832;28;20996;-73
2022/11/27 09:00:44;;;;;;;5.83;3.90;;;8.70;99.90;;;;;;4994594;28;20453;-73
2022/11/27 09:03:14;;;;;;;5.37;4.30;;;8.60;99.90;;;;;;4974472;28;20272;-73
2022/11/27 09:05:45;;;;;;;5.53;3.60;;;8.60;99.90;;;;;;5007511;28;20790;-73
2022/11/27 09:08:19;;;;;;;5.60;3.30;;;8.70;99.90;;;;;;4979699;28;20439;-73
2022/11/27 09:10:47;;;;;;;5.43;3.47;;;8.70;99.90;;;;;;4973854;28;20944;-73
2022/11/27 09:13:13;;;;;;;6.10;3.60;;;8.70;99.90;;;;;;5005347;28;20510;-73
2022/11/27 09:15:38;;;;;;;9.20;4.03;;;8.70;99.90;;;;;;4993126;28;20922;-73
2022/11/27 09:18:07;;;;;;;5.57;3.40;;;8.70;99.90;;;;;;4993961;28;20428;-73
2022/11/27 09:20:33;;;;;;;4.80;3.27;;;8.70;99.90;;;;;;4993551;28;20860;-73
2022/11/27 09:23:01;;;;;;;6.30;4.30;;;8.70;99.90;;;;;;4981126;28;20457;-73
2022/11/27 09:25:28;;;;;;;8.37;4.20;;;8.70;99.90;;;;;;4957200;28;20166;-72
2022/11/27 09:27:54;;;;;;;6.37;3.67;;;8.70;99.90;;;;;;4983468;28;20849;-73
2022/11/27 09:30:20;;;;;;;5.63;3.73;;;8.70;99.90;;;;;;4976038;28;21012;-73
2022/11/27 09:32:48;;;;;;;5.60;4.10;;;8.70;99.90;;;;;;4983707;28;20841;-73
2022/11/27 09:35:16;;;;;;;5.37;3.97;;;8.70;99.90;;;;;;4973997;28;20423;-73
2022/11/27 09:37:42;;;;;;;7.00;3.40;;;8.70;99.90;;;;;;4958474;28;20436;-73
2022/11/27 09:40:14;;;;;;;7.17;3.87;;;8.70;99.90;;;;;;4986950;28;20451;-73
2022/11/27 09:43:03;;;;;;;6.03;3.13;;;8.80;99.90;;;;;;5008572;28;20431;-73
2022/11/27 09:45:33;;;;;;;5.80;3.70;;;8.80;99.90;;;;;;4992812;28;20605;-73
2022/11/27 09:48:04;;;;;;;6.03;4.00;;;8.80;99.90;;;;;;4968423;28;20988;-73
2022/11/27 09:50:48;;;;;;;5.70;4.27;;;8.80;99.90;;;;;;4971548;28;20511;-73
2022/11/27 09:53:35;;;;;;;6.33;3.90;;;8.80;99.90;;;;;;5000638;28;20935;-73
2022/11/27 09:56:15;;;;;;;7.70;3.37;;;8.80;99.90;;;;;;4977199;28;20482;-73
2022/11/27 09:59:01;;;;;;;5.97;3.63;;;8.80;99.90;;;;;;4992687;28;20985;-73
2022/11/27 10:01:31;;;;;;;5.17;3.27;;;8.80;99.90;;;;;;4972442;28;20443;-74
2022/11/27 10:04:01;;;;;;;7.07;3.23;;;8.90;99.90;;;;;;4971079;28;20466;-73
2022/11/27 10:06:32;;;;;;;4.50;3.53;;;8.80;99.90;;;;;;4971108;28;20483;-74
2022/11/27 10:09:30;;;;;;;9.87;3.80;;;8.80;99.90;;;;;;4989044;28;20573;-74
2022/11/27 10:12:30;;;;;;;5.90;3.30;;;8.90;99.90;;;;;;4968457;28;21081;-72
2022/11/27 10:15:33;;;;;;;5.67;3.10;;;8.80;99.90;;;;;;4957825;28;20910;-73
2022/11/27 10:18:20;;;;;;;5.70;3.57;;;8.90;99.90;;;;;;4991627;28;20494;-72
2022/11/27 10:21:02;;;;;;;5.73;3.67;;;8.90;99.90;;;;;;4992808;28;20816;-71
2022/11/27 10:23:45;;;;;;;8.70;3.33;;;8.80;99.90;;;;;;4991199;28;20788;-75
2022/11/27 10:26:19;;;;;;;7.00;3.57;;;8.90;99.90;;;;;;4990634;28;20694;-75
2022/11/27 10:28:55;;;;;;;5.50;3.63;;;8.90;99.90;;;;;;4961223;28;20457;-75
2022/11/27 10:31:47;;;;;;;4.07;3.27;;;8.90;99.90;;;;;;4976710;28;20570;-73
2022/11/27 10:34:32;;;;;;;5.33;3.20;;;8.90;99.90;;;;;;4981489;28;21021;-73
2022/11/27 10:37:04;;;;;;;5.20;3.50;;;8.90;99.90;;;;;;5000730;28;21004;-73
2022/11/27 10:39:41;;;;;;;5.93;3.47;;;8.90;99.90;;;;;;4992731;28;20486;-72
2022/11/27 10:42:14;;;;;;;5.70;3.67;;;8.90;99.90;;;;;;4982584;28;20457;-72
2022/11/27 10:44:45;;;;;;;3.60;3.30;;;8.90;99.90;;;;;;5008380;28;20598;-72
2022/11/27 10:47:12;;;;;;;8.47;3.80;;;8.90;99.90;;;;;;4981950;28;20432;-72
2022/11/27 10:49:40;;;;;;;6.53;3.70;;;8.90;99.90;;;;;;4990740;28;20558;-72
2022/11/27 10:52:15;;;;;;;4.90;3.50;;;8.90;99.90;;;;;;4991462;28;20429;-72
2022/11/27 10:54:45;;;;;;;4.97;3.50;;;8.90;99.90;;;;;;5003903;28;20821;-72
2022/11/27 10:57:33;;;;;;;5.40;3.80;;;8.90;99.90;;;;;;4973773;28;20447;-72
2022/11/27 11:00:08;;;;;;;5.80;3.50;;;8.90;99.90;;;;;;4991515;28;20477;-72
2022/11/27 11:02:44;;;;;;;7.13;4.33;;;9.00;99.90;;;;;;4976132;28;20486;-72
2022/11/27 11:05:21;;;;;;;6.90;4.03;;;9.00;99.90;;;;;;5008492;28;20442;-72
2022/11/27 11:08:04;;;;;;;5.23;3.90;;;9.00;99.90;;;;;;5002831;28;20520;-73
2022/11/27 11:10:44;;;;;;;8.30;4.83;;;9.00;99.90;;;;;;4975497;28;20529;-73
2022/11/27 11:13:10;;;;;;;4.30;3.50;;;9.00;99.90;;;;;;4993563;28;20451;-73
2022/11/27 11:16:03;;;;;;;8.23;3.80;;;9.00;99.90;;;;;;5009936;28;20420;-73
2022/11/27 11:18:34;;;;;;;6.93;4.20;;;9.00;99.90;;;;;;4977567;28;20953;-73
2022/11/27 11:21:07;;;;;;;6.50;3.50;;;8.90;99.90;;;;;;4976007;28;20443;-73
2022/11/27 11:23:37;;;;;;;5.37;3.30;;;9.00;99.90;;;;;;4977344;28;20822;-72
2022/11/27 11:26:12;;;;;;;4.73;3.50;;;9.00;99.90;;;;;;4972092;28;20433;-73
2022/11/27 11:28:53;;;;;;;4.73;3.30;;;9.00;99.90;;;;;;4977251;28;20520;-72
2022/11/27 11:31:22;;;;;;;5.10;3.50;;;9.00;99.90;;;;;;4971675;28;20433;-72
2022/11/27 11:34:30;;;;;;;5.53;3.70;;;9.00;99.90;;;;;;4977153;28;20449;-73
2022/11/27 11:37:05;;;;;;;5.57;3.37;;;9.00;99.90;;;;;;4989391;28;20547;-73
2022/11/27 11:39:38;;;;;;;6.57;4.10;;;9.00;99.90;;;;;;4991235;28;21074;-73
2022/11/27 11:42:21;;;;;;;8.30;4.27;;;9.00;99.90;;;;;;4977322;28;20799;-71
2022/11/27 11:45:01;;;;;;;6.03;4.10;;;9.00;99.90;;;;;;4972197;28;20428;-72
2022/11/27 11:47:27;;;;;;;7.83;4.00;;;9.00;99.90;;;;;;4976055;28;21021;-73
2022/11/27 11:49:55;;;;;;;7.37;4.23;;;9.10;99.90;;;;;;4994806;28;20464;-74
2022/11/27 11:52:45;;;;;;;7.70;4.27;;;9.10;99.90;;;;;;4994284;28;20464;-75
2022/11/27 11:55:23;;;;;;;6.63;4.37;;;9.10;99.90;;;;;;4991820;28;21002;-75
2022/11/27 11:58:14;;;;;;;6.30;3.93;;;9.10;99.90;;;;;;4991501;28;20503;-75
2022/11/27 12:00:47;;;;;;;5.67;4.13;;;9.10;99.90;;;;;;4959740;28;20465;-72
2022/11/27 12:03:31;;;;;;;7.07;4.20;;;9.10;99.90;;;;;;4981771;28;20428;-75
2022/11/27 12:06:26;;;;;;;6.13;4.20;;;9.10;99.90;;;;;;4994406;28;20407;-73
2022/11/27 12:09:33;;;;;;;5.60;3.90;;;9.10;99.90;;;;;;4998773;28;20460;-76
2022/11/27 12:12:17;;;;;;;6.33;4.20;;;9.10;99.90;;;;;;4995579;28;20859;-74
2022/11/27 12:14:58;;;;;;;9.43;4.30;;;9.10;99.90;;;;;;4993149;28;20441;-76
2022/11/27 12:17:33;;;;;;;4.67;4.17;;;9.10;99.90;;;;;;4995952;28;20398;-73
2022/11/27 12:20:29;;;;;;;4.80;3.57;;;9.10;99.90;;;;;;4996036;28;20447;-75
2022/11/27 12:23:41;;;;;;;5.43;3.30;;;9.10;99.90;;;;;;4995858;28;20911;-74
2022/11/27 12:26:29;;;;;;;5.73;3.77;;;9.10;99.90;;;;;;4942365;28;20855;-74
2022/11/27 12:29:05;;;;;;;6.57;4.40;;;9.10;99.90;;;;;;5011280;28;20460;-76
2022/11/27 12:31:46;;;;;;;7.00;3.80;;;9.10;99.90;;;;;;4994532;28;20447;-73
2022/11/27 12:34:24;;;;;;;4.57;3.40;;;9.10;99.90;;;;;;4997643;28;20780;-73
2022/11/27 12:36:59;;;;;;;5.97;3.40;;;9.10;99.90;;;;;;4996110;28;20530;-72
2022/11/27 12:39:47;;;;;;;5.20;3.73;;;9.10;99.90;;;;;;4980183;28;20424;-73
2022/11/27 12:42:22;;;;;;;6.50;3.77;;;9.10;99.90;;;;;;4975656;28;20447;-73
2022/11/27 12:44:57;;;;;;;4.10;3.57;;;9.10;99.90;;;;;;4991252;28;20432;-73
2022/11/27 12:47:34;;;;;;;9.07;4.27;;;9.10;99.90;;;;;;4998167;28;20452;-73
2022/11/27 12:50:24;;;;;;;4.50;3.70;;;9.10;99.90;;;;;;4982926;28;20473;-73
2022/11/27 12:53:07;;;;;;;7.07;3.77;;;9.10;99.90;;;;;;4984946;28;20996;-72
2022/11/27 12:55:34;;;;;;;7.00;3.80;;;9.10;99.90;;;;;;4992619;28;20537;-72
2022/11/27 12:58:15;;;;;;;7.77;4.20;;;9.20;99.90;;;;;;5000257;28;20559;-72
2022/11/27 13:00:44;;;;;;;5.47;3.83;;;9.20;99.90;;;;;;4989441;28;20470;-74
2022/11/27 13:03:33;;;;;;;4.87;3.37;;;9.20;99.90;;;;;;4983238;28;20429;-72
2022/11/27 13:06:08;;;;;;;5.03;3.50;;;9.20;99.90;;;;;;4998754;28;20412;-72
2022/11/27 13:08:46;;;;;;;4.83;3.47;;;9.20;99.90;;;;;;4978651;28;20436;-72
2022/11/27 13:11:18;;;;;;;4.23;3.40;;;9.20;99.90;;;;;;4985747;28;20455;-72
2022/11/27 13:14:04;;;;;;;5.43;4.20;;;9.20;99.90;;;;;;4994067;28;20468;-72
2022/11/27 13:16:37;;;;;;;9.80;3.07;;;9.20;99.90;;;;;;4980765;28;20420;-72
2022/11/27 13:19:26;;;;;;;4.80;3.33;;;9.20;99.90;;;;;;4942575;28;20998;-72
2022/11/27 13:21:56;;;;;;;5.47;3.47;;;9.30;99.90;;;;;;4993066;28;20432;-72
2022/11/27 13:24:27;;;;;;;4.60;3.50;;;9.20;99.90;;;;;;4977081;28;20412;-73